createdAt,value
2022-12-26T00:00:15.615Z,0
2022-12-26T00:01:15.046Z,0
2022-12-26T00:02:15.522Z,0
2022-12-26T00:03:15.041Z,0
2022-12-26T00:04:49.382Z,0
2022-12-26T00:05:14.636Z,0
2022-12-26T00:06:14.452Z,0
2022-12-26T00:07:14.316Z,0
2022-12-26T00:08:15.020Z,0
2022-12-26T00:09:15.441Z,0
2022-12-26T00:10:14.418Z,0
2022-12-26T00:11:15.109Z,0
2022-12-26T00:12:15.176Z,0
2022-12-26T00:13:38.752Z,0
2022-12-26T00:14:14.628Z,0
2022-12-26T00:15:14.895Z,0
2022-12-26T00:16:15.121Z,0
2022-12-26T00:17:14.240Z,0
2022-12-26T00:18:14.603Z,0
2022-12-26T00:19:15.108Z,0
2022-12-26T00:20:15.560Z,0
2022-12-26T00:21:14.831Z,0
2022-12-26T00:22:15.331Z,0
2022-12-26T00:23:15.110Z,0
2022-12-26T00:24:15.190Z,0
2022-12-26T00:25:15.611Z,0
2022-12-26T00:26:14.992Z,0
2022-12-26T00:27:15.112Z,0
2022-12-26T00:28:14.912Z,0
2022-12-26T00:29:15.465Z,0
2022-12-26T00:30:14.957Z,0
2022-12-26T00:31:15.373Z,0
2022-12-26T00:32:14.651Z,0
2022-12-26T00:33:14.926Z,0
2022-12-26T00:34:14.672Z,0
2022-12-26T00:35:15.668Z,0
2022-12-26T00:36:15.422Z,0
2022-12-26T00:37:14.907Z,0
2022-12-26T00:38:14.845Z,0
2022-12-26T00:39:15.085Z,0
2022-12-26T00:40:15.419Z,0
2022-12-26T00:41:14.434Z,0
2022-12-26T00:42:14.261Z,0
2022-12-26T00:43:14.199Z,0
2022-12-26T00:44:15.352Z,0
2022-12-26T00:45:14.647Z,0
2022-12-26T00:46:15.098Z,0
2022-12-26T00:47:14.704Z,0.109
2022-12-26T00:48:15.082Z,0
2022-12-26T00:49:15.189Z,0
2022-12-26T00:50:15.643Z,0.109
2022-12-26T00:51:15.465Z,0
2022-12-26T00:52:14.753Z,0
2022-12-26T00:53:14.877Z,0
2022-12-26T00:54:14.658Z,0
2022-12-26T00:55:15.226Z,0
2022-12-26T00:56:14.267Z,0
2022-12-26T00:57:14.559Z,0
2022-12-26T00:58:14.703Z,0
2022-12-26T00:59:14.677Z,0
2022-12-26T01:00:15.197Z,0
2022-12-26T01:01:16.265Z,0
2022-12-26T01:03:14.312Z,0
2022-12-26T01:04:14.623Z,0
2022-12-26T01:05:14.881Z,0
2022-12-26T01:06:15.435Z,0
2022-12-26T01:07:14.670Z,0
2022-12-26T01:08:21.794Z,0
2022-12-26T01:09:14.574Z,0.109
2022-12-26T01:10:15.029Z,0
2022-12-26T01:11:14.526Z,0
2022-12-26T01:12:15.098Z,0
2022-12-26T01:13:14.308Z,0
2022-12-26T01:14:14.638Z,0
2022-12-26T01:15:14.925Z,0
2022-12-26T01:16:15.023Z,0
2022-12-26T01:17:15.175Z,0
2022-12-26T01:18:15.493Z,0
2022-12-26T01:19:14.975Z,0
2022-12-26T01:20:15.250Z,0
2022-12-26T01:21:15.103Z,0
2022-12-26T01:22:14.901Z,0
2022-12-26T01:23:14.912Z,0
2022-12-26T01:24:14.964Z,0.109
2022-12-26T01:25:14.783Z,0
2022-12-26T01:26:19.935Z,0
2022-12-26T01:27:14.346Z,0
2022-12-26T01:28:15.214Z,0
2022-12-26T01:29:14.331Z,0
2022-12-26T01:30:14.690Z,0
2022-12-26T01:31:15.343Z,0.109
2022-12-26T01:32:14.473Z,0
2022-12-26T01:33:14.993Z,0
2022-12-26T01:34:14.968Z,0
2022-12-26T01:35:14.914Z,0
2022-12-26T01:36:14.735Z,0
2022-12-26T01:37:14.820Z,0
2022-12-26T01:38:15.069Z,0
2022-12-26T01:39:15.220Z,0
2022-12-26T01:40:14.697Z,0.109
2022-12-26T01:41:14.769Z,0.219
2022-12-26T01:42:14.762Z,0.109
2022-12-26T01:43:14.446Z,0
2022-12-26T01:44:14.733Z,0
2022-12-26T01:45:14.843Z,0.219
2022-12-26T01:46:15.034Z,0.219
2022-12-26T01:47:15.070Z,0
2022-12-26T01:48:15.106Z,0.109
2022-12-26T01:49:15.351Z,0
2022-12-26T01:50:14.629Z,0
2022-12-26T01:51:14.561Z,0
2022-12-26T01:52:14.635Z,0
2022-12-26T01:53:15.215Z,0
2022-12-26T01:54:39.855Z,0.109
2022-12-26T01:55:15.388Z,0
2022-12-26T01:56:14.570Z,0
2022-12-26T01:57:14.834Z,0.109
2022-12-26T01:58:14.771Z,0.109
2022-12-26T01:59:15.101Z,0
2022-12-26T02:00:16.068Z,0
2022-12-26T02:01:14.842Z,0
2022-12-26T02:02:15.381Z,0
2022-12-26T02:03:14.850Z,0
2022-12-26T02:04:14.930Z,0
2022-12-26T02:05:14.740Z,0
2022-12-26T02:06:14.153Z,0
2022-12-26T02:07:14.846Z,0
2022-12-26T02:08:14.869Z,0
2022-12-26T02:09:14.850Z,0
2022-12-26T02:10:14.920Z,0
2022-12-26T02:11:37.786Z,0
2022-12-26T02:12:35.861Z,0
2022-12-26T02:13:14.579Z,0.340
2022-12-26T02:14:14.643Z,0.109
2022-12-26T02:15:15.530Z,0.109
2022-12-26T02:16:14.089Z,0
2022-12-26T02:17:14.811Z,0.109
2022-12-26T02:18:13.788Z,0
2022-12-26T02:19:14.297Z,0.119
2022-12-26T02:20:15.213Z,0.100
2022-12-26T02:21:14.534Z,0
2022-12-26T02:22:14.384Z,0
2022-12-26T02:23:14.730Z,0
2022-12-26T02:24:14.388Z,0
2022-12-26T02:25:15.210Z,0
2022-12-26T02:26:13.832Z,0
2022-12-26T02:27:14.304Z,0
2022-12-26T02:28:14.743Z,0
2022-12-26T02:29:14.107Z,0.219
2022-12-26T02:30:14.549Z,0.119
2022-12-26T02:31:14.122Z,0.340
2022-12-26T02:32:14.735Z,0.109
2022-12-26T02:33:14.229Z,0
2022-12-26T02:34:14.254Z,0
2022-12-26T02:35:14.901Z,0
2022-12-26T02:36:14.186Z,0
2022-12-26T02:37:15.120Z,0.109
2022-12-26T02:38:14.361Z,0
2022-12-26T02:39:43.609Z,0
2022-12-26T02:40:14.888Z,0
2022-12-26T02:41:14.875Z,0
2022-12-26T02:42:14.434Z,0
2022-12-26T02:43:14.196Z,0
2022-12-26T02:44:14.447Z,0
2022-12-26T02:45:15.337Z,0
2022-12-26T02:46:14.370Z,0
2022-12-26T02:47:13.954Z,0
2022-12-26T02:48:14.521Z,0
2022-12-26T02:49:13.860Z,0
2022-12-26T02:50:14.531Z,0
2022-12-26T02:51:14.502Z,0
2022-12-26T02:52:14.142Z,0
2022-12-26T02:53:14.662Z,0
2022-12-26T02:54:14.012Z,0
2022-12-26T02:55:15.147Z,0
2022-12-26T02:56:14.400Z,0.109
2022-12-26T02:57:14.203Z,0
2022-12-26T02:58:14.900Z,0
2022-12-26T02:59:15.054Z,0
2022-12-26T03:00:14.571Z,0
2022-12-26T03:01:14.630Z,0
2022-12-26T03:02:14.803Z,0
2022-12-26T03:03:14.937Z,0
2022-12-26T03:04:14.728Z,0
2022-12-26T03:05:14.632Z,0
2022-12-26T03:06:14.497Z,0
2022-12-26T03:07:14.368Z,0
2022-12-26T03:08:14.244Z,0
2022-12-26T03:09:14.981Z,0
2022-12-26T03:10:14.394Z,0
2022-12-26T03:11:14.941Z,0
2022-12-26T03:12:14.481Z,0
2022-12-26T03:13:14.032Z,0.109
2022-12-26T03:14:14.532Z,0
2022-12-26T03:15:14.644Z,0
2022-12-26T03:16:14.721Z,0
2022-12-26T03:17:14.612Z,0
2022-12-26T03:18:14.180Z,0
2022-12-26T03:19:14.583Z,0
2022-12-26T03:20:14.435Z,0
2022-12-26T03:21:14.108Z,0
2022-12-26T03:22:14.280Z,0
2022-12-26T03:23:14.142Z,0
2022-12-26T03:24:14.822Z,0
2022-12-26T03:25:14.728Z,0
2022-12-26T03:26:14.502Z,0
2022-12-26T03:27:14.482Z,0
2022-12-26T03:28:15.205Z,0
2022-12-26T03:29:18.827Z,0
2022-12-26T03:30:15.354Z,0
2022-12-26T03:31:14.432Z,0
2022-12-26T03:32:13.862Z,0
2022-12-26T03:33:14.683Z,0
2022-12-26T03:34:14.545Z,0
2022-12-26T03:35:14.013Z,0
2022-12-26T03:36:14.444Z,0
2022-12-26T03:37:15.231Z,0
2022-12-26T03:38:15.060Z,0
2022-12-26T03:39:15.137Z,0
2022-12-26T03:40:15.177Z,0
2022-12-26T03:41:14.995Z,0.109
2022-12-26T03:42:14.527Z,0
2022-12-26T03:43:13.860Z,0
2022-12-26T03:44:14.377Z,0
2022-12-26T03:45:15.113Z,0
2022-12-26T03:46:14.961Z,0
2022-12-26T03:47:14.840Z,0
2022-12-26T03:48:14.279Z,0
2022-12-26T03:49:14.515Z,0
2022-12-26T03:50:14.099Z,0
2022-12-26T03:51:14.725Z,0
2022-12-26T03:52:14.309Z,0
2022-12-26T03:53:14.862Z,0
2022-12-26T03:54:14.586Z,0
2022-12-26T03:55:14.366Z,0
2022-12-26T03:56:14.571Z,0
2022-12-26T03:57:14.226Z,0
2022-12-26T03:58:14.669Z,0
2022-12-26T03:59:14.603Z,0
2022-12-26T04:00:15.433Z,0
2022-12-26T04:01:14.372Z,0
2022-12-26T04:02:14.279Z,0
2022-12-26T04:03:14.312Z,0
2022-12-26T04:04:15.106Z,0
2022-12-26T04:05:14.839Z,0
2022-12-26T04:06:14.426Z,0
2022-12-26T04:07:14.787Z,0
2022-12-26T04:08:18.467Z,0
2022-12-26T04:09:15.029Z,0
2022-12-26T04:10:14.878Z,0
2022-12-26T04:11:14.582Z,0
2022-12-26T04:12:14.126Z,0
2022-12-26T04:13:14.686Z,0
2022-12-26T04:14:14.042Z,0
2022-12-26T04:15:14.800Z,0
2022-12-26T04:16:14.636Z,0
2022-12-26T04:17:14.484Z,0
2022-12-26T04:18:14.241Z,0
2022-12-26T04:19:15.157Z,0
2022-12-26T04:20:14.958Z,0.109
2022-12-26T04:21:14.753Z,0
2022-12-26T04:22:13.791Z,0.109
2022-12-26T04:23:14.251Z,0
2022-12-26T04:24:14.926Z,0
2022-12-26T04:25:14.182Z,0
2022-12-26T04:26:13.717Z,0
2022-12-26T04:27:13.943Z,0
2022-12-26T04:28:13.839Z,0.109
2022-12-26T04:29:14.011Z,0
2022-12-26T04:30:14.471Z,0
2022-12-26T04:31:14.737Z,0
2022-12-26T04:32:14.308Z,0
2022-12-26T04:33:14.416Z,0
2022-12-26T04:34:14.273Z,0
2022-12-26T04:35:14.800Z,0
2022-12-26T04:36:13.878Z,0
2022-12-26T04:37:14.078Z,0
2022-12-26T04:38:14.164Z,0.109
2022-12-26T04:39:14.539Z,0
2022-12-26T04:40:15.084Z,0
2022-12-26T04:41:14.035Z,0
2022-12-26T04:42:14.081Z,0
2022-12-26T04:43:50.052Z,0
2022-12-26T04:44:14.232Z,0
2022-12-26T04:45:14.965Z,0
2022-12-26T04:46:13.944Z,0
2022-12-26T04:47:14.629Z,0
2022-12-26T04:48:13.710Z,0
2022-12-26T04:49:13.900Z,0
2022-12-26T04:50:14.177Z,0
2022-12-26T04:51:14.720Z,0
2022-12-26T04:52:14.036Z,0
2022-12-26T04:53:14.544Z,0
2022-12-26T04:54:14.696Z,0
2022-12-26T04:55:14.437Z,0.219
2022-12-26T04:56:13.709Z,0
2022-12-26T04:57:14.924Z,0.340
2022-12-26T04:58:13.775Z,0.449
2022-12-26T04:59:14.033Z,0.340
2022-12-26T05:00:14.765Z,0.560
2022-12-26T05:01:14.196Z,0.449
2022-12-26T05:02:14.853Z,0.340
2022-12-26T05:03:18.664Z,0.239
2022-12-26T05:04:14.368Z,0.519
2022-12-26T05:05:15.253Z,0.449
2022-12-26T05:06:14.394Z,0.109
2022-12-26T05:07:14.069Z,0.610
2022-12-26T05:08:13.801Z,0.490
2022-12-26T05:09:14.238Z,0.449
2022-12-26T05:10:14.528Z,0.519
2022-12-26T05:11:13.853Z,0.340
2022-12-26T05:12:14.169Z,0.370
2022-12-26T05:13:14.623Z,0.610
2022-12-26T05:14:14.112Z,0.340
2022-12-26T05:15:14.854Z,0.449
2022-12-26T05:16:14.551Z,0.219
2022-12-26T05:17:14.092Z,0.519
2022-12-26T05:18:14.486Z,0.610
2022-12-26T05:19:13.849Z,0.219
2022-12-26T05:20:14.904Z,0.680
2022-12-26T05:21:14.617Z,0.219
2022-12-26T05:22:14.226Z,0.449
2022-12-26T05:23:15.029Z,0.219
2022-12-26T05:24:14.808Z,0.449
2022-12-26T05:25:14.728Z,0.340
2022-12-26T05:26:15.264Z,0.449
2022-12-26T05:27:14.728Z,0.109
2022-12-26T05:28:14.913Z,0.219
2022-12-26T05:29:14.969Z,0.219
2022-12-26T05:30:15.730Z,0.449
2022-12-26T05:31:14.571Z,0.449
2022-12-26T05:32:14.955Z,0
2022-12-26T05:33:14.974Z,0.340
2022-12-26T05:34:15.147Z,0
2022-12-26T05:35:15.311Z,0.219
2022-12-26T05:36:14.605Z,0.449
2022-12-26T05:37:14.768Z,0.449
2022-12-26T05:38:15.004Z,0.560
2022-12-26T05:39:15.349Z,0.109
2022-12-26T05:40:14.357Z,0.219
2022-12-26T05:41:14.606Z,0.109
2022-12-26T05:42:14.959Z,0.449
2022-12-26T05:43:14.493Z,0.219
2022-12-26T05:44:14.515Z,0.109
2022-12-26T05:45:15.043Z,0.219
2022-12-26T05:46:15.089Z,0.219
2022-12-26T05:47:15.308Z,0.449
2022-12-26T05:48:14.513Z,0.560
2022-12-26T05:49:14.768Z,0.340
2022-12-26T05:50:15.543Z,0.109
2022-12-26T05:51:15.007Z,0.219
2022-12-26T05:52:15.078Z,0.219
2022-12-26T05:53:14.912Z,0.219
2022-12-26T05:54:15.605Z,0.109
2022-12-26T05:55:15.115Z,0.340
2022-12-26T05:56:15.242Z,0.109
2022-12-26T05:57:14.277Z,0.219
2022-12-26T05:58:14.367Z,0.109
2022-12-26T05:59:14.559Z,0.340
2022-12-26T06:00:15.536Z,0.449
2022-12-26T06:01:15.088Z,0.560
2022-12-26T06:02:14.333Z,0.340
2022-12-26T06:03:15.502Z,0.449
2022-12-26T06:04:14.897Z,0.560
2022-12-26T06:05:15.616Z,0.109
2022-12-26T06:06:15.079Z,0.219
2022-12-26T06:07:14.491Z,0
2022-12-26T06:08:15.072Z,0
2022-12-26T06:09:15.124Z,0
2022-12-26T06:10:14.385Z,0
2022-12-26T06:11:14.808Z,0.109
2022-12-26T06:12:14.821Z,0
2022-12-26T06:13:15.211Z,0.109
2022-12-26T06:14:14.474Z,0.219
2022-12-26T06:15:15.039Z,0.109
2022-12-26T06:16:15.384Z,0.219
2022-12-26T06:17:15.571Z,0.340
2022-12-26T06:18:14.949Z,0.449
2022-12-26T06:19:15.336Z,0.449
2022-12-26T06:20:14.555Z,0.219
2022-12-26T06:21:15.187Z,0.219
2022-12-26T06:22:15.752Z,0.219
2022-12-26T06:23:15.397Z,0.119
2022-12-26T06:24:14.716Z,0.409
2022-12-26T06:25:15.087Z,0.219
2022-12-26T06:26:14.639Z,0.109
2022-12-26T06:27:15.691Z,0.449
2022-12-26T06:28:15.005Z,0.119
2022-12-26T06:29:14.802Z,0.219
2022-12-26T06:30:15.590Z,0.219
2022-12-26T06:31:15.109Z,0.409
2022-12-26T06:32:14.403Z,0.490
2022-12-26T06:33:14.329Z,0.449
2022-12-26T06:34:14.831Z,0.680
2022-12-26T06:35:15.690Z,0.340
2022-12-26T06:36:15.132Z,0.340
2022-12-26T06:37:15.730Z,0.560
2022-12-26T06:38:15.408Z,0.449
2022-12-26T06:39:15.141Z,0.340
2022-12-26T06:40:14.637Z,0.790
2022-12-26T06:41:15.006Z,0.340
2022-12-26T06:42:14.939Z,0.449
2022-12-26T06:43:15.326Z,0.340
2022-12-26T06:44:18.113Z,0
2022-12-26T06:45:15.199Z,0.219
2022-12-26T06:46:14.691Z,0.340
2022-12-26T06:47:14.689Z,0.340
2022-12-26T06:48:15.301Z,0.340
2022-12-26T06:49:14.661Z,0.109
2022-12-26T06:50:14.848Z,0
2022-12-26T06:51:15.603Z,0
2022-12-26T06:52:14.801Z,0
2022-12-26T06:53:15.319Z,0
2022-12-26T06:54:14.466Z,0
2022-12-26T06:55:14.914Z,0
2022-12-26T06:56:15.304Z,0
2022-12-26T06:57:14.480Z,0
2022-12-26T06:58:14.313Z,0
2022-12-26T06:59:14.497Z,0
2022-12-26T07:00:15.933Z,13600
2022-12-26T07:01:15.359Z,0
2022-12-26T07:02:15.408Z,0
2022-12-26T07:03:15.281Z,0
2022-12-26T07:04:15.030Z,0
2022-12-26T07:05:15.778Z,0.219
2022-12-26T07:06:14.919Z,0.680
2022-12-26T07:07:15.250Z,1.090
2022-12-26T07:08:15.536Z,0.670
2022-12-26T07:09:14.634Z,1.629
2022-12-26T07:10:15.459Z,2.369
2022-12-26T07:11:14.552Z,3.019
2022-12-26T07:12:15.650Z,3.829
2022-12-26T07:13:15.322Z,4.329
2022-12-26T07:14:14.434Z,5.239
2022-12-26T07:15:15.481Z,6.219
2022-12-26T07:16:15.105Z,7.090
2022-12-26T07:17:15.540Z,8.479
2022-12-26T07:18:14.885Z,9.930
2022-12-26T07:19:15.273Z,11.23
2022-12-26T07:20:15.240Z,12.31
2022-12-26T07:21:14.237Z,13.85
2022-12-26T07:22:14.837Z,15.51
2022-12-26T07:23:15.123Z,17.14
2022-12-26T07:24:14.508Z,17.38
2022-12-26T07:25:15.285Z,18.86
2022-12-26T07:26:14.785Z,19.89
2022-12-26T07:27:15.562Z,22.20
2022-12-26T07:28:15.037Z,24
2022-12-26T07:29:14.430Z,25.65
2022-12-26T07:30:14.887Z,27.51
2022-12-26T07:31:15.012Z,29.79
2022-12-26T07:32:16.510Z,33.09
2022-12-26T07:33:16.967Z,36.70
2022-12-26T07:34:17.421Z,40.90
2022-12-26T07:35:15.943Z,46.40
2022-12-26T07:36:15.645Z,52.29
2022-12-26T07:37:16.303Z,58.40
2022-12-26T07:38:17.049Z,64.30
2022-12-26T07:39:16.808Z,70.5
2022-12-26T07:40:16.519Z,77.30
2022-12-26T07:41:15.527Z,85.09
2022-12-26T07:42:17.026Z,93.30
2022-12-26T07:43:16.707Z,103
2022-12-26T07:44:16.631Z,114
2022-12-26T07:45:16.992Z,122.4
2022-12-26T07:46:17.475Z,125.6
2022-12-26T07:47:16.148Z,125.3
2022-12-26T07:48:16.121Z,127.5
2022-12-26T07:49:15.863Z,133.8
2022-12-26T07:50:15.571Z,139.1
2022-12-26T07:51:17.482Z,139.1
2022-12-26T07:52:16.332Z,147
2022-12-26T07:53:17.196Z,169
2022-12-26T07:54:16.136Z,190
2022-12-26T07:55:15.958Z,212
2022-12-26T07:56:16.321Z,234
2022-12-26T07:57:46.929Z,248.6
2022-12-26T07:58:16.726Z,240
2022-12-26T07:59:15.685Z,230
2022-12-26T08:00:17.354Z,260
2022-12-26T08:01:17.867Z,300
2022-12-26T08:02:16.809Z,339
2022-12-26T08:03:16.931Z,347.1
2022-12-26T08:04:15.887Z,365
2022-12-26T08:05:15.666Z,390
2022-12-26T08:06:16.429Z,430
2022-12-26T08:07:17.053Z,459
2022-12-26T08:08:16.589Z,479
2022-12-26T08:09:15.795Z,500
2022-12-26T08:10:16.555Z,502.5
2022-12-26T08:11:18.299Z,508
2022-12-26T08:12:17.130Z,530
2022-12-26T08:13:15.622Z,590
2022-12-26T08:14:15.607Z,650
2022-12-26T08:15:16.351Z,700
2022-12-26T08:16:16.610Z,733
2022-12-26T08:17:17.215Z,739
2022-12-26T08:18:16.005Z,780
2022-12-26T08:19:16.473Z,860
2022-12-26T08:20:16.150Z,888
2022-12-26T08:21:17.146Z,800
2022-12-26T08:22:18.539Z,710
2022-12-26T08:23:16.687Z,658
2022-12-26T08:24:15.648Z,657
2022-12-26T08:25:20.170Z,710
2022-12-26T08:26:17.799Z,800
2022-12-26T08:27:16.933Z,900
2022-12-26T08:28:16.108Z,970
2022-12-26T08:29:15.187Z,1030
2022-12-26T08:30:16.948Z,1090
2022-12-26T08:31:16.548Z,1140
2022-12-26T08:32:17.154Z,1200
2022-12-26T08:33:15.863Z,1400
2022-12-26T08:34:15.366Z,1520
2022-12-26T08:35:15.349Z,1590
2022-12-26T08:36:15.843Z,1660
2022-12-26T08:37:15.340Z,1700
2022-12-26T08:38:15.542Z,1840
2022-12-26T08:39:16.422Z,1910
2022-12-26T08:40:26.833Z,1961
2022-12-26T08:41:15.798Z,1920
2022-12-26T08:42:15.307Z,1870
2022-12-26T08:43:38.717Z,1820
2022-12-26T08:44:26.729Z,1788
2022-12-26T08:45:15.645Z,1810
2022-12-26T08:46:20.934Z,1900
2022-12-26T08:47:16.109Z,2100
2022-12-26T08:48:15.534Z,2230
2022-12-26T08:49:16.336Z,2100
2022-12-26T08:50:16.935Z,1900
2022-12-26T08:51:17.253Z,1860
2022-12-26T08:52:16.219Z,1700
2022-12-26T08:53:15.908Z,1670
2022-12-26T08:54:16.129Z,1623
2022-12-26T08:55:16.827Z,1611
2022-12-26T08:56:16.935Z,1600
2022-12-26T08:57:16.511Z,1800
2022-12-26T08:58:15.743Z,2000
2022-12-26T08:59:16.618Z,2200
2022-12-26T09:00:17.443Z,2300
2022-12-26T09:01:17.147Z,2470
2022-12-26T09:02:16.797Z,2516
2022-12-26T09:03:15.977Z,2530
2022-12-26T09:04:30.785Z,2550
2022-12-26T09:05:16.955Z,2630
2022-12-26T09:06:16.744Z,2700
2022-12-26T09:07:16.729Z,2800
2022-12-26T09:08:15.822Z,3000
2022-12-26T09:09:15.591Z,3200
2022-12-26T09:10:16.870Z,3290
2022-12-26T09:11:16.247Z,3360
2022-12-26T09:12:16.424Z,3403
2022-12-26T09:13:16.020Z,3410
2022-12-26T09:14:17.465Z,3442
2022-12-26T09:15:17.127Z,3478
2022-12-26T09:16:38.635Z,3480
2022-12-26T09:17:16.857Z,3500
2022-12-26T09:18:16.421Z,3640
2022-12-26T09:19:15.742Z,3690
2022-12-26T09:20:16.419Z,3790
2022-12-26T09:21:16.655Z,3820
2022-12-26T09:22:35.531Z,3890
2022-12-26T09:23:16.232Z,3990
2022-12-26T09:24:16.335Z,3900
2022-12-26T09:25:16.588Z,3800
2022-12-26T09:26:16.745Z,3500
2022-12-26T09:27:17.031Z,3300
2022-12-26T09:28:16.389Z,3290
2022-12-26T09:29:16.753Z,3220
2022-12-26T09:30:17.196Z,3167
2022-12-26T09:31:17.051Z,3190
2022-12-26T09:32:16.285Z,3260
2022-12-26T09:33:15.508Z,3309
2022-12-26T09:34:16.220Z,3327.
2022-12-26T09:35:17.121Z,3350
2022-12-26T09:36:17.093Z,3410
2022-12-26T09:37:16.992Z,3500
2022-12-26T09:38:17.104Z,3611
2022-12-26T09:39:15.657Z,3614.
2022-12-26T09:40:16.331Z,3630
2022-12-26T09:41:16.343Z,3690
2022-12-26T09:42:16.895Z,3700
2022-12-26T09:43:15.874Z,3900
2022-12-26T09:44:15.901Z,4000
2022-12-26T09:45:16.400Z,4200
2022-12-26T09:46:16.944Z,4300
2022-12-26T09:47:16.855Z,4400
2022-12-26T09:48:15.816Z,4580
2022-12-26T09:49:16.130Z,4631
2022-12-26T09:50:15.752Z,4680
2022-12-26T09:51:15.608Z,4740
2022-12-26T09:52:15.399Z,4763
2022-12-26T09:53:16.113Z,4756.
2022-12-26T09:54:15.517Z,4755
2022-12-26T09:55:16.422Z,4720
2022-12-26T09:56:36.958Z,4707
2022-12-26T09:57:22.056Z,4714
2022-12-26T09:58:16.077Z,4650
2022-12-26T09:59:15.539Z,4560
2022-12-26T10:00:15.796Z,4524
2022-12-26T10:01:16.606Z,4530
2022-12-26T10:02:15.826Z,4572
2022-12-26T10:03:16.397Z,4582
2022-12-26T10:04:14.921Z,4610
2022-12-26T10:05:15.919Z,4700
2022-12-26T10:06:15.867Z,4770
2022-12-26T10:07:16.009Z,4820
2022-12-26T10:08:15.311Z,4835.
2022-12-26T10:09:16.019Z,4825
2022-12-26T10:10:15.339Z,4793
2022-12-26T10:11:14.668Z,4774
2022-12-26T10:12:15.443Z,4820
2022-12-26T10:13:15.292Z,4900
2022-12-26T10:14:19.790Z,5020
2022-12-26T10:15:15.944Z,5070
2022-12-26T10:16:15.180Z,5160
2022-12-26T10:17:15.458Z,5200
2022-12-26T10:18:14.731Z,5330
2022-12-26T10:19:15.178Z,5352
2022-12-26T10:20:15.479Z,5320
2022-12-26T10:21:15.097Z,5200
2022-12-26T10:22:14.857Z,5120
2022-12-26T10:23:15.332Z,5110
2022-12-26T10:24:15.209Z,5180
2022-12-26T10:25:15.205Z,5220
2022-12-26T10:26:14.918Z,5232
2022-12-26T10:27:14.721Z,5180
2022-12-26T10:28:15.655Z,5130
2022-12-26T10:29:14.635Z,5070
2022-12-26T10:30:15.565Z,5070
2022-12-26T10:31:15.837Z,5140
2022-12-26T10:32:15.199Z,5240
2022-12-26T10:33:14.664Z,5310
2022-12-26T10:34:15.437Z,5280
2022-12-26T10:35:15.427Z,5230
2022-12-26T10:36:14.889Z,5300
2022-12-26T10:37:14.590Z,5460
2022-12-26T10:38:14.716Z,5440
2022-12-26T10:39:15.575Z,5300
2022-12-26T10:40:15.137Z,5200
2022-12-26T10:41:14.546Z,5390
2022-12-26T10:42:15.211Z,5400
2022-12-26T10:43:15.040Z,5500
2022-12-26T10:44:15.002Z,5650
2022-12-26T10:45:15.710Z,5663
2022-12-26T10:46:15.133Z,5500
2022-12-26T10:47:15.126Z,5300
2022-12-26T10:48:15.685Z,5300
2022-12-26T10:49:15.482Z,5500
2022-12-26T10:50:15.245Z,5700
2022-12-26T10:51:15.469Z,5900
2022-12-26T10:52:15.314Z,6020
2022-12-26T10:53:15.348Z,5930
2022-12-26T10:54:15.010Z,5914
2022-12-26T10:55:29.439Z,5930
2022-12-26T10:56:18.177Z,6000
2022-12-26T10:57:15.217Z,6060
2022-12-26T10:58:14.464Z,5900
2022-12-26T10:59:14.311Z,5700
2022-12-26T11:00:15.313Z,5600
2022-12-26T11:01:15.599Z,5000
2022-12-26T11:02:14.476Z,5000
2022-12-26T11:03:15.422Z,4000
2022-12-26T11:04:16.602Z,4000
2022-12-26T11:05:33.385Z,4100
2022-12-26T11:06:18.237Z,4300
2022-12-26T11:07:14.896Z,4400
2022-12-26T11:08:15.285Z,4300
2022-12-26T11:09:20.051Z,4600
2022-12-26T11:10:14.869Z,4800
2022-12-26T11:11:15.268Z,4900
2022-12-26T11:12:14.621Z,4000
2022-12-26T11:13:14.856Z,4000
2022-12-26T11:14:15.771Z,3000
2022-12-26T11:15:15.472Z,3000
2022-12-26T11:16:14.860Z,2600
2022-12-26T11:17:15.187Z,2520
2022-12-26T11:18:15.353Z,2000
2022-12-26T11:19:22.751Z,0
2022-12-26T11:20:14.892Z,4500
2022-12-26T11:21:15.436Z,4500
2022-12-26T11:22:14.769Z,4600
2022-12-26T11:23:14.911Z,4720
2022-12-26T11:24:14.910Z,5000
2022-12-26T11:25:15.099Z,5260
2022-12-26T11:26:14.771Z,5260
2022-12-26T11:27:14.559Z,5170
2022-12-26T11:28:14.908Z,5160
2022-12-26T11:29:14.058Z,5110
2022-12-26T11:30:15.173Z,4900
2022-12-26T11:31:14.945Z,4700
2022-12-26T11:32:15.292Z,4520
2022-12-26T11:33:15.030Z,4483
2022-12-26T11:34:15.303Z,4520
2022-12-26T11:35:14.196Z,4600
2022-12-26T11:36:14.898Z,4750
2022-12-26T11:37:14.979Z,4820
2022-12-26T11:38:15.471Z,4834.
2022-12-26T11:39:16.058Z,4862
2022-12-26T11:40:16.062Z,4820
2022-12-26T11:41:34.984Z,4740
2022-12-26T11:42:15.630Z,4725
2022-12-26T11:43:15.513Z,4750
2022-12-26T11:44:16.102Z,4780
2022-12-26T11:45:16.150Z,4807.
2022-12-26T11:46:15.896Z,4820
2022-12-26T11:47:15.085Z,4861
2022-12-26T11:48:15.741Z,4849.
2022-12-26T11:49:15.977Z,4800
2022-12-26T11:50:16.349Z,4710
2022-12-26T11:51:35.091Z,4500
2022-12-26T11:52:15.485Z,4200
2022-12-26T11:53:15.621Z,4100
2022-12-26T11:54:15.868Z,4000
2022-12-26T11:55:16.805Z,3920
2022-12-26T11:56:14.345Z,3890
2022-12-26T11:57:17.264Z,3860
2022-12-26T11:58:15.938Z,3000
2022-12-26T12:00:15.946Z,1000
2022-12-26T12:01:16.005Z,1500
2022-12-26T12:02:16.571Z,1300
2022-12-26T12:03:15.751Z,1200
2022-12-26T12:04:14.795Z,1100
2022-12-26T12:05:15.042Z,1090
2022-12-26T12:06:15.424Z,1100
2022-12-26T12:07:16.158Z,1300
2022-12-26T12:08:16.520Z,1500
2022-12-26T12:09:15.359Z,1600
2022-12-26T12:10:15.691Z,1800
2022-12-26T12:11:15.311Z,1950
2022-12-26T12:12:16.374Z,2020
2022-12-26T12:13:15.756Z,2100
2022-12-26T12:14:15.359Z,2000
2022-12-26T12:16:15.928Z,3000
2022-12-26T12:17:15.435Z,4400
2022-12-26T12:18:16.107Z,4000
2022-12-26T12:19:15.267Z,3800
2022-12-26T12:20:14.972Z,3000
2022-12-26T12:21:14.647Z,4200
2022-12-26T12:22:15.146Z,4240
2022-12-26T12:23:15.065Z,4100
2022-12-26T12:24:16.349Z,3900
2022-12-26T12:25:15.891Z,4000
2022-12-26T12:26:15.879Z,4000
2022-12-26T12:27:15.363Z,5200
2022-12-26T12:28:15.586Z,5500
2022-12-26T12:29:15.795Z,5000
2022-12-26T12:30:16.013Z,4000
2022-12-26T12:31:15.518Z,4780
2022-12-26T12:32:16.086Z,4800
2022-12-26T12:33:15.401Z,5100
2022-12-26T12:34:16.504Z,5310
2022-12-26T12:35:15.499Z,5400
2022-12-26T12:36:14.976Z,5000
2022-12-26T12:37:15.222Z,0
2022-12-26T12:38:16.313Z,3000
2022-12-26T12:39:16.157Z,3000
2022-12-26T12:40:16.533Z,2910
2022-12-26T12:41:15.695Z,2700
2022-12-26T12:42:15.555Z,2600
2022-12-26T12:43:16.997Z,2000
2022-12-26T12:44:15.953Z,2000
2022-12-26T12:45:16.672Z,0
2022-12-26T12:46:15.488Z,0
2022-12-26T12:47:15.873Z,4000
2022-12-26T12:48:16.161Z,0
2022-12-26T12:49:16.868Z,0
2022-12-26T12:50:15.328Z,3000
2022-12-26T12:51:14.509Z,4000
2022-12-26T12:52:15.515Z,4000
2022-12-26T12:53:15.726Z,3500
2022-12-26T12:54:15.139Z,3000
2022-12-26T12:55:15.463Z,3800
2022-12-26T12:56:15.556Z,3000
2022-12-26T12:57:17.558Z,2000
2022-12-26T12:58:17.216Z,2500
2022-12-26T12:59:17.539Z,2370
2022-12-26T13:00:17.250Z,2300
2022-12-26T13:01:16.159Z,2000
2022-12-26T13:02:20.683Z,2000
2022-12-26T13:03:17.077Z,2100
2022-12-26T13:04:17.125Z,2000
2022-12-26T13:05:16.798Z,1000
2022-12-26T13:06:15.886Z,1600
2022-12-26T13:07:17.243Z,1600
2022-12-26T13:08:17.288Z,1300
2022-12-26T13:09:17.110Z,1300
2022-12-26T13:10:16.148Z,1400
2022-12-26T13:11:16.347Z,1600
2022-12-26T13:12:17.361Z,1400
2022-12-26T13:13:16.955Z,1260
2022-12-26T13:14:16.523Z,1400
2022-12-26T13:15:16.300Z,1500
2022-12-26T13:16:16.347Z,2000
2022-12-26T13:17:15.566Z,2700
2022-12-26T13:18:16.642Z,2600
2022-12-26T13:19:16.158Z,2450
2022-12-26T13:20:16.522Z,2000
2022-12-26T13:21:15.290Z,1000
2022-12-26T13:22:14.531Z,1400
2022-12-26T13:23:14.991Z,1000
2022-12-26T13:24:15.473Z,700
2022-12-26T13:25:15.571Z,744
2022-12-26T13:26:14.424Z,760
2022-12-26T13:27:14.599Z,800
2022-12-26T13:28:14.545Z,1000
2022-12-26T13:29:14.356Z,1190
2022-12-26T13:30:14.359Z,1180
2022-12-26T13:31:14.289Z,1100
2022-12-26T13:32:13.964Z,900
2022-12-26T13:33:15.093Z,800
2022-12-26T13:34:15.320Z,700
2022-12-26T13:35:16.220Z,650
2022-12-26T13:36:16.341Z,750
2022-12-26T13:37:16.067Z,700
2022-12-26T13:38:19.868Z,500
2022-12-26T13:39:16.505Z,530
2022-12-26T13:40:21.720Z,480
2022-12-26T13:41:15.918Z,434
2022-12-26T13:42:23.784Z,470
2022-12-26T13:43:15.687Z,600
2022-12-26T13:44:15.964Z,720
2022-12-26T13:45:16.507Z,700
2022-12-26T13:46:23.636Z,1000